Time;durP1;ratioP1;P1;durP2;ratioP2;P2;SDS_P1;SDS_P2;PMS_P1;PMS_P2;Temp;Humidity;BMP_temperature;BMP_pressure;BME280_temperature;BME280_humidity;BME280_pressure;Samples;Min_cycle;Max_cycle;Signal;HPM_P1;HPM_P2
2023/10/08 00:01:21;;;;;;;2.67;2.27;;;11.10;8.40;;;;;;5052911;28;20481;-75
2023/10/08 00:03:51;;;;;;;3.87;3.00;;;11.10;8.20;;;;;;5052103;28;20468;-74
2023/10/08 00:06:21;;;;;;;5.33;2.37;;;11.10;4.50;;;;;;5052821;28;20450;-75
2023/10/08 00:08:47;;;;;;;5.13;2.70;;;11.00;1.40;;;;;;5053543;28;20834;-74
2023/10/08 00:11:15;;;;;;;4.40;2.30;;;11.00;1.00;;;;;;5051900;28;20403;-76
2023/10/08 00:13:42;;;;;;;4.70;3.00;;;10.90;1.00;;;;;;5051890;28;20457;-78
2023/10/08 00:16:09;;;;;;;4.93;2.63;;;10.90;1.00;;;;;;5052668;28;20456;-74
2023/10/08 00:18:37;;;;;;;7.90;3.80;;;10.90;1.00;;;;;;5035914;28;20388;-74
2023/10/08 00:23:35;;;;;;;2.90;2.40;;;10.90;1.00;;;;;;5050640;28;20487;-78
2023/10/08 00:26:04;;;;;;;3.20;2.20;;;10.90;1.00;;;;;;5048965;28;20431;-75
2023/10/08 00:28:31;;;;;;;4.63;2.40;;;10.80;1.00;;;;;;5051872;28;20534;-74
2023/10/08 00:31:12;;;;;;;3.17;2.83;;;10.80;1.00;;;;;;5053406;28;20398;-78
2023/10/08 00:33:38;;;;;;;4.50;2.00;;;10.80;1.00;;;;;;5061522;28;20457;-79
2023/10/08 00:36:20;;;;;;;6.63;2.73;;;10.80;1.00;;;;;;5053111;28;20471;-77
2023/10/08 00:38:59;;;;;;;6.73;2.07;;;10.90;1.00;;;;;;5053114;28;20901;-75
2023/10/08 00:41:28;;;;;;;10.07;2.97;;;10.80;1.00;;;;;;5053378;28;20419;-74
2023/10/08 00:43:56;;;;;;;5.13;2.60;;;10.80;1.00;;;;;;5052445;28;20427;-76
2023/10/08 00:48:54;;;;;;;8.43;2.97;;;10.80;1.00;;;;;;5052875;28;20392;-75
2023/10/08 00:53:57;;;;;;;5.13;2.60;;;10.80;1.00;;;;;;5051342;28;20435;-77
2023/10/08 00:56:43;;;;;;;2.67;2.40;;;10.80;1.00;;;;;;5052987;28;20400;-77
2023/10/08 00:59:13;;;;;;;4.37;2.10;;;10.80;1.00;;;;;;5053086;28;20412;-75
2023/10/08 01:01:39;;;;;;;6.63;2.00;;;10.80;1.00;;;;;;5052874;28;20399;-76
2023/10/08 01:04:11;;;;;;;4.13;2.27;;;10.80;1.00;;;;;;5050895;28;20469;-77
2023/10/08 01:06:39;;;;;;;5.03;2.10;;;10.70;1.00;;;;;;5050338;28;20475;-76
2023/10/08 01:09:18;;;;;;;3.27;2.07;;;10.70;1.00;;;;;;5052923;28;20948;-78
2023/10/08 01:11:50;;;;;;;10.00;2.63;;;10.70;1.00;;;;;;5051802;28;20411;-74
2023/10/08 01:14:21;;;;;;;6.30;2.37;;;10.70;1.00;;;;;;5049829;28;20571;-77
2023/10/08 01:16:47;;;;;;;2.37;2.10;;;10.60;1.00;;;;;;5050745;28;20427;-77
2023/10/08 01:19:21;;;;;;;2.53;2.33;;;10.60;1.00;;;;;;5052787;28;20424;-75
2023/10/08 01:21:47;;;;;;;2.83;2.03;;;10.60;1.00;;;;;;5048839;28;20494;-74
2023/10/08 01:24:17;;;;;;;2.70;1.70;;;10.70;1.00;;;;;;5032954;28;20518;-75
2023/10/08 01:26:42;;;;;;;5.60;1.93;;;10.60;1.00;;;;;;5051261;28;20218;-76
2023/10/08 01:29:21;;;;;;;4.20;2.10;;;10.60;1.00;;;;;;5050559;28;20412;-78
2023/10/08 01:31:53;;;;;;;6.50;2.77;;;10.60;1.00;;;;;;5051580;28;20183;-77
2023/10/08 01:34:26;;;;;;;2.73;2.53;;;10.60;1.00;;;;;;5047705;28;20855;-75
2023/10/08 01:36:52;;;;;;;3.87;2.30;;;10.60;1.00;;;;;;5051582;28;20432;-77
2023/10/08 01:39:17;;;;;;;3.33;2.00;;;10.60;1.00;;;;;;5051607;28;20457;-75
2023/10/08 01:41:44;;;;;;;2.43;2.13;;;10.60;1.00;;;;;;5051645;28;20273;-75
2023/10/08 01:44:10;;;;;;;2.27;1.70;;;10.60;1.00;;;;;;5053094;28;20187;-75
2023/10/08 01:46:37;;;;;;;2.53;2.03;;;10.60;1.00;;;;;;5055324;28;20440;-77
2023/10/08 01:49:13;;;;;;;3.93;1.80;;;10.60;1.00;;;;;;5056594;28;20164;-75
2023/10/08 01:51:44;;;;;;;4.30;2.30;;;10.50;1.00;;;;;;5056387;28;20396;-75
2023/10/08 01:54:11;;;;;;;2.90;1.80;;;10.50;1.00;;;;;;5055535;28;20663;-74
2023/10/08 01:56:41;;;;;;;3.57;2.40;;;10.50;1.00;;;;;;5056324;28;20737;-78
2023/10/08 01:59:14;;;;;;;4.03;2.53;;;10.40;1.00;;;;;;5056410;28;20368;-77
2023/10/08 02:01:45;;;;;;;2.97;1.87;;;10.40;1.00;;;;;;5055410;28;20762;-75
2023/10/08 02:04:16;;;;;;;4.27;2.33;;;10.40;1.00;;;;;;5054884;28;20411;-77
2023/10/08 02:06:41;;;;;;;5.23;2.40;;;10.30;1.00;;;;;;5056160;28;20403;-74
2023/10/08 02:09:07;;;;;;;2.50;1.97;;;10.30;1.00;;;;;;5056198;28;20380;-75
2023/10/08 02:11:50;;;;;;;2.00;1.80;;;10.30;1.00;;;;;;5056318;28;20170;-77
2023/10/08 02:14:20;;;;;;;3.70;1.80;;;10.30;1.00;;;;;;5055139;28;20435;-74
2023/10/08 02:16:47;;;;;;;2.00;1.90;;;10.30;1.00;;;;;;5055890;28;20828;-75
2023/10/08 02:19:13;;;;;;;5.23;2.50;;;10.20;1.00;;;;;;5056001;28;20883;-77
2023/10/08 02:21:39;;;;;;;2.20;2.00;;;10.20;1.00;;;;;;5053874;28;21733;-76
2023/10/08 02:24:11;;;;;;;2.10;1.80;;;10.20;1.00;;;;;;5036487;28;20435;-76
2023/10/08 02:26:36;;;;;;;4.67;2.13;;;10.20;1.00;;;;;;5053569;28;20530;-76
2023/10/08 02:29:06;;;;;;;7.97;2.70;;;10.10;1.00;;;;;;5054493;28;20499;-74
2023/10/08 02:31:32;;;;;;;8.73;2.90;;;10.10;1.00;;;;;;5053518;28;20175;-77
2023/10/08 02:33:58;;;;;;;3.67;2.30;;;10.10;1.00;;;;;;5039188;28;20492;-75
2023/10/08 02:36:24;;;;;;;5.70;2.20;;;10.10;1.00;;;;;;5053345;28;20487;-76
2023/10/08 02:38:50;;;;;;;9.43;2.40;;;10.10;1.00;;;;;;5055381;28;20409;-74
2023/10/08 02:41:17;;;;;;;2.93;1.97;;;10.00;1.00;;;;;;5053918;28;20555;-77
2023/10/08 02:43:44;;;;;;;3.57;1.80;;;10.00;1.00;;;;;;5054681;28;20181;-76
2023/10/08 02:46:15;;;;;;;1.80;1.67;;;10.00;1.00;;;;;;5053428;28;20484;-77
2023/10/08 02:48:41;;;;;;;2.20;1.90;;;10.00;1.00;;;;;;5055479;28;20432;-77
2023/10/08 02:51:13;;;;;;;6.23;2.50;;;10.00;1.00;;;;;;5054335;28;20464;-77
2023/10/08 02:53:42;;;;;;;2.50;2.30;;;10.00;1.00;;;;;;5052882;28;20551;-80
2023/10/08 02:56:12;;;;;;;3.77;1.93;;;10.10;1.00;;;;;;5053916;28;20420;-74
2023/10/08 02:58:41;;;;;;;2.80;2.60;;;10.10;1.00;;;;;;5053564;28;20743;-77
2023/10/08 03:01:12;;;;;;;2.30;1.73;;;10.00;1.00;;;;;;5052897;28;20403;-77
2023/10/08 03:03:46;;;;;;;3.90;2.20;;;10.00;1.00;;;;;;5053875;28;20989;-79
2023/10/08 03:06:14;;;;;;;2.70;2.30;;;10.00;1.00;;;;;;5037932;28;20459;-76
2023/10/08 03:08:41;;;;;;;2.83;2.10;;;10.00;1.00;;;;;;5045046;28;20400;-77
2023/10/08 03:11:16;;;;;;;2.47;2.03;;;9.90;1.00;;;;;;5053850;28;20436;-75
2023/10/08 03:13:51;;;;;;;4.80;2.67;;;9.90;1.00;;;;;;5052808;28;20484;-77
2023/10/08 03:16:21;;;;;;;2.63;2.40;;;9.80;1.00;;;;;;5051648;28;20796;-75
2023/10/08 03:18:50;;;;;;;3.93;2.20;;;9.80;1.00;;;;;;5052220;28;20400;-74
2023/10/08 03:22:04;;;;;;;2.60;2.40;;;9.80;1.00;;;;;;5053724;28;20426;-77
2023/10/08 03:24:06;;;;;;;2.27;2.00;;;9.80;1.00;;;;;;5049669;28;20471;-75
2023/10/08 03:26:35;;;;;;;3.40;2.30;;;9.80;1.00;;;;;;5050894;28;20462;-76
2023/10/08 03:29:07;;;;;;;2.50;1.87;;;9.80;1.00;;;;;;5051614;28;20465;-74
2023/10/08 03:34:19;;;;;;;9.80;2.40;;;9.70;1.00;;;;;;5051419;28;20435;-77
2023/10/08 03:36:46;;;;;;;3.73;2.00;;;9.60;1.00;;;;;;5051287;28;20456;-75
2023/10/08 03:39:14;;;;;;;2.10;2.00;;;9.60;1.00;;;;;;5038064;28;20399;-78
2023/10/08 03:41:40;;;;;;;5.23;3.60;;;9.50;1.00;;;;;;5035487;28;20396;-75
2023/10/08 03:44:13;;;;;;;1.90;1.80;;;9.50;1.00;;;;;;5052552;28;20380;-74
2023/10/08 03:46:42;;;;;;;4.77;2.37;;;9.50;1.00;;;;;;5054384;28;20893;-74
2023/10/08 03:51:52;;;;;;;4.20;3.93;;;9.40;1.00;;;;;;5054320;28;20402;-76
2023/10/08 03:54:20;;;;;;;3.50;2.43;;;9.40;1.00;;;;;;5052875;28;20419;-77
2023/10/08 03:56:48;;;;;;;4.07;2.23;;;9.30;1.00;;;;;;5054138;28;20464;-77
2023/10/08 03:59:20;;;;;;;2.50;2.30;;;9.30;1.00;;;;;;5054105;28;20372;-77
2023/10/08 04:01:49;;;;;;;5.20;1.90;;;9.30;1.00;;;;;;5053213;28;20418;-75
2023/10/08 04:04:15;;;;;;;2.60;2.40;;;9.30;1.00;;;;;;5072873;28;20474;-77
2023/10/08 04:06:49;;;;;;;4.80;2.23;;;9.30;1.00;;;;;;5073161;28;20822;-74
2023/10/08 04:09:23;;;;;;;3.80;2.67;;;9.20;1.00;;;;;;5073936;28;20417;-74
2023/10/08 04:11:55;;;;;;;4.30;2.30;;;9.30;1.00;;;;;;5073764;28;20848;-75
2023/10/08 04:14:23;;;;;;;3.00;2.10;;;9.20;1.00;;;;;;5051484;28;20499;-76
2023/10/08 04:16:51;;;;;;;2.43;2.27;;;9.30;1.00;;;;;;5048792;28;20503;-76
2023/10/08 04:19:20;;;;;;;4.40;2.43;;;9.30;1.00;;;;;;5051593;28;20476;-76
2023/10/08 04:21:53;;;;;;;2.40;2.20;;;9.30;1.00;;;;;;5044142;28;20802;-76
2023/10/08 04:24:28;;;;;;;4.17;1.90;;;9.30;1.00;;;;;;5052873;28;20388;-77
2023/10/08 04:27:02;;;;;;;2.30;2.10;;;9.20;1.00;;;;;;5052613;28;20967;-75
2023/10/08 04:29:32;;;;;;;3.40;2.10;;;9.20;1.00;;;;;;5051620;28;20438;-78
2023/10/08 04:32:07;;;;;;;3.40;1.80;;;9.20;1.00;;;;;;5037524;28;20429;-75
2023/10/08 04:34:36;;;;;;;4.80;2.30;;;9.20;1.00;;;;;;5051058;28;20439;-75
2023/10/08 04:37:03;;;;;;;2.10;1.90;;;9.20;1.00;;;;;;5051146;28;20428;-77
2023/10/08 04:39:32;;;;;;;6.33;2.37;;;9.20;1.00;;;;;;5053517;28;20492;-77
2023/10/08 04:42:09;;;;;;;2.40;1.90;;;9.30;1.00;;;;;;5052236;28;20404;-76
2023/10/08 04:44:39;;;;;;;5.90;2.73;;;9.20;1.00;;;;;;5047431;28;20396;-77
2023/10/08 04:47:06;;;;;;;6.67;2.27;;;9.20;1.00;;;;;;5052316;28;20398;-78
2023/10/08 04:49:34;;;;;;;3.30;2.37;;;9.20;1.00;;;;;;5050894;28;20404;-76
2023/10/08 04:52:14;;;;;;;3.03;2.17;;;9.20;1.00;;;;;;5039012;28;20439;-76
2023/10/08 04:54:50;;;;;;;7.63;2.40;;;9.10;1.00;;;;;;5052103;28;20412;-75
2023/10/08 04:57:18;;;;;;;6.47;1.90;;;9.00;1.00;;;;;;5051891;28;20399;-75
2023/10/08 04:59:46;;;;;;;1.93;1.70;;;9.00;1.00;;;;;;5051840;28;20402;-73
2023/10/08 05:05:21;;;;;;;2.60;2.40;;;8.90;1.00;;;;;;5050607;28;20411;-80
2023/10/08 05:10:32;;;;;;;4.83;2.17;;;8.80;1.00;;;;;;5051921;28;20523;-77
2023/10/08 05:15:41;;;;;;;3.30;2.47;;;8.80;1.00;;;;;;5049775;28;20555;-75
2023/10/08 05:18:19;;;;;;;2.77;2.57;;;8.80;1.00;;;;;;5049424;28;20462;-76
2023/10/08 05:26:08;;;;;;;2.87;2.40;;;8.80;1.00;;;;;;5049996;28;20485;-76
2023/10/08 05:28:46;;;;;;;3.10;2.53;;;8.70;1.00;;;;;;5051597;28;20422;-76
2023/10/08 05:36:50;;;;;;;4.90;2.47;;;8.60;1.00;;;;;;5049428;28;20472;-76
2023/10/08 05:42:12;;;;;;;2.20;2.00;;;8.60;1.00;;;;;;5051022;28;20857;-80
2023/10/08 05:44:40;;;;;;;2.43;2.13;;;8.50;1.00;;;;;;5050187;28;20430;-78
2023/10/08 05:53:01;;;;;;;5.53;2.60;;;8.50;1.00;;;;;;5014836;28;20439;-77
2023/10/08 05:55:34;;;;;;;2.30;2.10;;;8.40;1.00;;;;;;5051616;28;20433;-72
2023/10/08 05:58:24;;;;;;;4.10;2.60;;;8.40;1.00;;;;;;5053042;28;20497;-78
2023/10/08 06:03:32;;;;;;;3.50;2.67;;;8.50;1.00;;;;;;5048695;28;20437;-73
2023/10/08 06:06:57;;;;;;;3.90;2.07;;;8.50;1.00;;;;;;5050538;28;20460;-77
2023/10/08 06:11:44;;;;;;;7.70;3.00;;;8.50;1.00;;;;;;5052629;28;20916;-73
2023/10/08 06:14:16;;;;;;;3.63;2.67;;;8.40;1.00;;;;;;5050370;28;20459;-76
2023/10/08 06:16:46;;;;;;;2.40;2.20;;;8.50;1.00;;;;;;5032388;28;20432;-77
2023/10/08 06:19:13;;;;;;;4.70;2.73;;;8.50;1.00;;;;;;5032289;28;20413;-73
2023/10/08 06:21:41;;;;;;;2.40;2.20;;;8.50;1.00;;;;;;5032194;28;20401;-75
2023/10/08 06:24:09;;;;;;;3.33;1.90;;;8.50;1.00;;;;;;5047027;28;20448;-78
2023/10/08 06:26:42;;;;;;;2.87;2.77;;;8.50;1.00;;;;;;5052260;28;20453;-78
2023/10/08 06:29:31;;;;;;;3.13;2.53;;;8.50;1.00;;;;;;5052419;28;20440;-77
2023/10/08 06:32:01;;;;;;;2.40;2.20;;;8.40;1.00;;;;;;5055945;28;20413;-76
2023/10/08 06:34:31;;;;;;;3.07;2.67;;;8.50;1.00;;;;;;5052909;28;20482;-75
2023/10/08 06:36:59;;;;;;;3.57;3.37;;;8.50;1.00;;;;;;5056968;28;20986;-75
2023/10/08 06:39:47;;;;;;;2.57;2.37;;;8.50;1.00;;;;;;5054805;28;20432;-76
2023/10/08 06:42:11;;;;;;;7.00;2.60;;;8.50;1.00;;;;;;5055427;28;20428;-75
2023/10/08 06:44:38;;;;;;;7.83;3.57;;;8.60;1.00;;;;;;5054191;28;20470;-74
2023/10/08 06:47:09;;;;;;;3.80;2.70;;;8.60;1.00;;;;;;5062892;28;20209;-76
2023/10/08 06:49:35;;;;;;;3.83;2.73;;;8.60;1.00;;;;;;5056888;28;20391;-73
2023/10/08 06:52:03;;;;;;;3.50;2.53;;;8.70;1.00;;;;;;5054136;28;20437;-77
2023/10/08 06:54:30;;;;;;;3.37;2.87;;;8.70;1.00;;;;;;5053374;28;20475;-74
2023/10/08 06:56:56;;;;;;;3.27;3.00;;;8.70;1.00;;;;;;5055518;28;20398;-74
2023/10/08 06:59:23;;;;;;;4.43;3.20;;;8.70;1.00;;;;;;5055341;28;20416;-77
2023/10/08 07:01:51;;;;;;;3.13;2.93;;;8.80;1.00;;;;;;5055348;28;20420;-79
2023/10/08 07:04:18;;;;;;;2.70;2.50;;;8.80;1.00;;;;;;5053336;28;20461;-76
2023/10/08 07:06:46;;;;;;;3.10;2.87;;;8.80;1.00;;;;;;5054230;28;20429;-78
2023/10/08 07:11:57;;;;;;;5.93;3.03;;;9.00;1.00;;;;;;5034860;28;20452;-78
2023/10/08 07:14:26;;;;;;;5.37;3.20;;;9.10;1.00;;;;;;5034120;28;20457;-77
2023/10/08 07:16:59;;;;;;;3.10;2.80;;;9.10;1.00;;;;;;5050018;28;20449;-77
2023/10/08 07:19:37;;;;;;;3.50;3.20;;;9.20;1.00;;;;;;5055023;28;20382;-73
2023/10/08 07:22:04;;;;;;;3.30;3.00;;;9.30;1.00;;;;;;5053927;28;20942;-73
2023/10/08 07:24:34;;;;;;;3.47;2.60;;;9.40;1.00;;;;;;5053936;28;20441;-77
2023/10/08 07:27:05;;;;;;;5.87;3.20;;;9.50;1.00;;;;;;5054827;28;20436;-73
2023/10/08 07:29:32;;;;;;;3.50;3.30;;;9.60;1.00;;;;;;5053799;28;20429;-73
2023/10/08 07:32:09;;;;;;;5.00;3.73;;;9.70;1.00;;;;;;5054431;28;20405;-75
2023/10/08 07:34:36;;;;;;;3.83;3.50;;;9.80;1.00;;;;;;5053602;28;20431;-77
2023/10/08 07:37:02;;;;;;;4.07;3.50;;;9.90;7.50;;;;;;5054762;28;20371;-75
2023/10/08 07:41:54;;;;;;;7.37;3.70;;;10.10;32.00;;;;;;5053722;28;20623;-75
2023/10/08 07:44:21;;;;;;;5.87;4.03;;;10.20;32.10;;;;;;5052671;28;20647;-77
2023/10/08 07:46:51;;;;;;;3.93;3.30;;;10.30;39.00;;;;;;5036603;28;20478;-77
2023/10/08 07:49:18;;;;;;;3.73;3.53;;;10.50;49.60;;;;;;5054175;28;20438;-76
2023/10/08 07:51:50;;;;;;;5.00;3.37;;;10.50;58.70;;;;;;5053849;28;20928;-74
2023/10/08 07:54:19;;;;;;;4.73;3.43;;;10.70;71.30;;;;;;5051495;28;20465;-73
2023/10/08 07:56:46;;;;;;;3.67;3.37;;;10.90;81.10;;;;;;5053002;28;20486;-74
2023/10/08 07:59:14;;;;;;;7.23;3.43;;;11.10;92.90;;;;;;5054348;28;20436;-73
2023/10/08 08:01:42;;;;;;;5.00;3.47;;;11.20;96.90;;;;;;5054286;28;20388;-77
2023/10/08 08:04:21;;;;;;;6.57;3.70;;;11.40;99.90;;;;;;5053356;28;20380;-77
2023/10/08 08:06:50;;;;;;;3.30;2.93;;;11.50;99.90;;;;;;5054138;28;20763;-73
2023/10/08 08:09:19;;;;;;;4.17;3.80;;;11.60;99.90;;;;;;5052822;28;20419;-77
2023/10/08 08:11:46;;;;;;;9.97;3.27;;;11.60;99.90;;;;;;5053489;28;20453;-76
2023/10/08 08:14:24;;;;;;;4.40;3.00;;;11.70;99.90;;;;;;5053184;28;20439;-74
2023/10/08 08:16:51;;;;;;;3.00;2.80;;;11.70;99.90;;;;;;5053906;28;20417;-78
2023/10/08 08:19:17;;;;;;;3.20;2.90;;;11.80;99.90;;;;;;5053838;28;20376;-74
2023/10/08 08:21:45;;;;;;;8.43;2.60;;;11.90;99.90;;;;;;5052644;28;20476;-75
2023/10/08 08:24:24;;;;;;;2.93;2.60;;;12.10;99.90;;;;;;5053147;28;20372;-76
2023/10/08 08:27:11;;;;;;;2.93;2.10;;;12.20;99.90;;;;;;5053617;28;20418;-78
2023/10/08 08:29:44;;;;;;;2.63;2.37;;;12.30;99.90;;;;;;5053371;28;20949;-77
2023/10/08 08:32:21;;;;;;;4.53;1.80;;;12.50;99.90;;;;;;5053424;28;20379;-77
2023/10/08 08:34:50;;;;;;;3.67;2.00;;;12.60;99.90;;;;;;5052740;28;20394;-77
2023/10/08 08:37:16;;;;;;;2.77;1.70;;;12.80;99.90;;;;;;5052432;28;20391;-74
2023/10/08 08:39:42;;;;;;;4.93;3.20;;;12.90;93.20;;;;;;5053466;28;20887;-74
2023/10/08 08:42:08;;;;;;;2.60;1.97;;;13.00;82.80;;;;;;5053500;28;20385;-76
2023/10/08 08:44:45;;;;;;;2.77;1.60;;;13.20;82.80;;;;;;5052527;28;20167;-74
2023/10/08 08:47:14;;;;;;;3.63;1.73;;;13.20;35.40;;;;;;5053449;28;20381;-78
2023/10/08 08:49:42;;;;;;;4.17;1.90;;;13.30;2.20;;;;;;5051227;28;20937;-74
2023/10/08 08:52:08;;;;;;;2.93;2.60;;;13.60;1.00;;;;;;5052981;28;20406;-74
2023/10/08 08:54:36;;;;;;;2.00;1.70;;;13.80;1.00;;;;;;5052123;28;20560;-75
2023/10/08 08:57:13;;;;;;;5.43;1.97;;;14.10;1.00;;;;;;5053427;28;20392;-76
2023/10/08 08:59:46;;;;;;;2.37;2.10;;;14.30;1.00;;;;;;5053246;28;20433;-78
2023/10/08 09:02:15;;;;;;;3.37;1.53;;;14.10;1.00;;;;;;5053218;28;20410;-78
2023/10/08 09:04:41;;;;;;;1.90;1.53;;;13.80;1.00;;;;;;5048714;28;20421;-77
2023/10/08 09:07:07;;;;;;;2.60;1.40;;;13.60;1.00;;;;;;5051530;28;20433;-77
2023/10/08 09:09:41;;;;;;;1.63;1.53;;;13.30;1.00;;;;;;5053198;28;20425;-78
2023/10/08 09:12:10;;;;;;;1.40;1.30;;;13.30;1.00;;;;;;5052942;28;20456;-75
2023/10/08 09:14:37;;;;;;;5.73;2.20;;;13.60;1.00;;;;;;5051999;28;20527;-76
2023/10/08 09:17:05;;;;;;;2.23;1.70;;;13.50;1.00;;;;;;5035422;28;20376;-75
2023/10/08 09:19:35;;;;;;;4.60;1.83;;;13.30;99.90;;;;;;5051777;28;20420;-78
2023/10/08 09:22:07;;;;;;;1.70;1.60;;;13.20;99.90;;;;;;5052788;28;20484;-74
2023/10/08 09:24:36;;;;;;;1.60;1.50;;;13.20;99.90;;;;;;5051416;28;20440;-78
2023/10/08 09:27:03;;;;;;;3.43;1.63;;;13.60;99.90;;;;;;5052080;28;20536;-75
2023/10/08 09:29:29;;;;;;;1.43;1.33;;;14.10;99.90;;;;;;5052872;28;20416;-75
2023/10/08 09:31:59;;;;;;;2.53;1.60;;;14.50;99.90;;;;;;5051593;28;20455;-79
2023/10/08 09:34:31;;;;;;;1.83;1.47;;;14.80;99.90;;;;;;5051627;28;20548;-79
2023/10/08 09:36:59;;;;;;;1.40;1.30;;;14.90;99.90;;;;;;5035024;28;20413;-77
2023/10/08 09:39:28;;;;;;;1.90;1.70;;;15.10;99.90;;;;;;5052769;28;20402;-76
2023/10/08 09:41:55;;;;;;;4.07;1.87;;;15.50;94.00;;;;;;5052741;28;20406;-77
2023/10/08 09:44:25;;;;;;;1.80;1.53;;;15.60;71.10;;;;;;5051136;28;20761;-78
2023/10/08 09:47:02;;;;;;;2.20;1.37;;;15.70;11.50;;;;;;5051678;28;20502;-78
2023/10/08 09:49:32;;;;;;;1.93;1.73;;;15.90;1.00;;;;;;5051869;28;20439;-78
2023/10/08 09:52:01;;;;;;;1.40;1.10;;;15.60;1.00;;;;;;5032865;28;20428;-77
2023/10/08 09:54:39;;;;;;;1.17;1.07;;;15.10;1.00;;;;;;5049180;28;20483;-76
2023/10/08 09:57:06;;;;;;;3.03;1.30;;;15.20;1.00;;;;;;5051489;28;20933;-78
2023/10/08 09:59:34;;;;;;;1.53;1.17;;;15.20;1.00;;;;;;5052699;28;20386;-79
2023/10/08 10:02:02;;;;;;;1.70;1.10;;;15.30;1.00;;;;;;5050622;28;20874;-78
2023/10/08 10:04:31;;;;;;;5.13;1.90;;;15.30;1.00;;;;;;5052823;28;20393;-79
2023/10/08 10:06:58;;;;;;;3.73;1.20;;;15.10;1.00;;;;;;5056627;28;20404;-78
2023/10/08 10:09:26;;;;;;;1.80;1.23;;;15.60;1.00;;;;;;5055237;28;21176;-78
2023/10/08 10:11:54;;;;;;;1.97;1.07;;;16.40;1.00;;;;;;5056337;28;20459;-77
2023/10/08 10:14:25;;;;;;;1.63;1.10;;;16.80;1.00;;;;;;5055372;28;20783;-77
2023/10/08 10:17:15;;;;;;;1.30;0.87;;;16.60;1.00;;;;;;5054395;28;20452;-76
2023/10/08 10:19:45;;;;;;;2.00;1.10;;;16.40;1.00;;;;;;5055776;28;20409;-79
2023/10/08 10:22:15;;;;;;;1.93;1.63;;;16.00;1.00;;;;;;5056204;28;20406;-78
2023/10/08 10:24:41;;;;;;;2.37;1.10;;;16.10;1.00;;;;;;5055124;28;20492;-77
2023/10/08 10:27:14;;;;;;;1.43;1.30;;;15.70;1.00;;;;;;5053855;28;20447;-78
2023/10/08 10:29:45;;;;;;;3.97;1.30;;;15.60;1.00;;;;;;5056238;28;20731;-77
2023/10/08 10:32:15;;;;;;;1.40;1.30;;;15.60;1.00;;;;;;5054104;28;20443;-78
2023/10/08 10:34:43;;;;;;;1.40;1.30;;;15.40;1.00;;;;;;5052549;28;20523;-77
2023/10/08 10:37:09;;;;;;;2.90;1.20;;;15.50;1.00;;;;;;5055301;28;20444;-77
2023/10/08 10:39:39;;;;;;;2.83;1.30;;;15.40;1.00;;;;;;5055863;28;20394;-77
2023/10/08 10:42:18;;;;;;;1.60;1.30;;;15.20;1.00;;;;;;5054709;28;20755;-77
2023/10/08 10:44:44;;;;;;;3.87;2.17;;;15.00;1.00;;;;;;5054682;28;20437;-77
2023/10/08 10:52:31;;;;;;;1.93;1.67;;;14.10;1.00;;;;;;5055418;28;20401;-79
2023/10/08 10:57:41;;;;;;;2.47;1.40;;;13.70;1.00;;;;;;5055647;28;20754;-77
2023/10/08 11:02:56;;;;;;;2.43;1.50;;;13.60;1.00;;;;;;5054602;28;20515;-77
2023/10/08 11:05:28;;;;;;;2.10;1.90;;;13.40;1.00;;;;;;5054418;28;20419;-77
2023/10/08 11:08:04;;;;;;;2.50;1.93;;;13.30;1.00;;;;;;5037224;28;20417;-76
2023/10/08 11:10:46;;;;;;;3.20;1.37;;;13.40;1.00;;;;;;5054695;28;20831;-77
2023/10/08 11:13:14;;;;;;;1.80;1.50;;;13.60;1.00;;;;;;5055007;28;20942;-77
2023/10/08 11:15:49;;;;;;;2.60;1.30;;;13.60;1.00;;;;;;5052799;28;20933;-77
2023/10/08 11:18:27;;;;;;;1.67;1.57;;;13.50;1.00;;;;;;5054209;28;20432;-77
2023/10/08 11:21:13;;;;;;;1.20;1.10;;;13.50;1.00;;;;;;5055090;28;20479;-77
2023/10/08 11:23:58;;;;;;;3.30;1.80;;;13.50;1.00;;;;;;5054445;28;20476;-81
2023/10/08 11:26:32;;;;;;;1.50;1.40;;;13.50;1.00;;;;;;5054740;28;20503;-78
2023/10/08 11:29:00;;;;;;;4.53;1.60;;;13.50;1.00;;;;;;5036492;28;20479;-76
2023/10/08 11:31:29;;;;;;;5.03;1.50;;;13.50;1.00;;;;;;5034703;28;20447;-77
2023/10/08 11:34:08;;;;;;;3.70;1.63;;;13.50;1.00;;;;;;5052935;28;20439;-77
2023/10/08 11:36:48;;;;;;;1.30;1.20;;;13.70;1.00;;;;;;5036859;28;20441;-76
2023/10/08 11:39:30;;;;;;;1.90;1.67;;;13.70;1.00;;;;;;5054637;28;20409;-76
2023/10/08 11:42:03;;;;;;;3.00;1.23;;;13.80;1.00;;;;;;5054700;28;20488;-77
2023/10/08 11:44:30;;;;;;;2.97;1.37;;;13.80;1.00;;;;;;5052605;28;20425;-78
2023/10/08 11:47:04;;;;;;;2.73;1.30;;;13.90;1.00;;;;;;5053197;28;20531;-76
2023/10/08 11:49:36;;;;;;;2.33;1.30;;;13.90;1.00;;;;;;5054406;28;20834;-76
2023/10/08 11:52:02;;;;;;;2.90;1.30;;;14.20;1.00;;;;;;5054495;28;20406;-76
2023/10/08 11:54:29;;;;;;;2.27;1.30;;;14.40;1.00;;;;;;5053471;28;20483;-77
2023/10/08 11:57:02;;;;;;;1.50;1.40;;;14.60;1.00;;;;;;5053285;28;20444;-78
2023/10/08 11:59:29;;;;;;;1.70;1.50;;;14.70;1.00;;;;;;5054322;28;20417;-76
2023/10/08 12:01:56;;;;;;;2.50;1.03;;;14.50;1.00;;;;;;5053087;28;20429;-77
2023/10/08 12:04:22;;;;;;;1.37;1.20;;;14.50;1.00;;;;;;5052365;28;20499;-77
2023/10/08 12:06:51;;;;;;;1.50;1.10;;;14.80;1.00;;;;;;5053725;28;20432;-76
2023/10/08 12:09:21;;;;;;;3.67;1.10;;;14.90;1.00;;;;;;5053001;28;20437;-76
2023/10/08 12:11:47;;;;;;;2.47;1.30;;;14.90;1.00;;;;;;5053093;28;20440;-77
2023/10/08 12:14:14;;;;;;;3.43;1.67;;;15.20;1.00;;;;;;5053043;28;20817;-77
2023/10/08 12:16:41;;;;;;;2.30;1.60;;;15.00;1.00;;;;;;5053255;28;20452;-79
2023/10/08 12:19:16;;;;;;;1.40;1.30;;;15.00;1.00;;;;;;5053782;28;20417;-78
2023/10/08 12:21:46;;;;;;;1.67;1.57;;;15.00;1.00;;;;;;5051625;28;20528;-77
2023/10/08 12:24:12;;;;;;;1.50;1.40;;;14.70;1.00;;;;;;5052936;28;20413;-76
2023/10/08 12:26:47;;;;;;;1.40;1.30;;;14.50;1.00;;;;;;5052757;28;20460;-76
2023/10/08 12:29:19;;;;;;;2.43;1.60;;;14.20;1.00;;;;;;5053774;28;20500;-77
2023/10/08 12:31:47;;;;;;;2.20;1.10;;;14.10;1.00;;;;;;5052676;28;20438;-78
2023/10/08 12:34:16;;;;;;;1.83;1.70;;;14.00;1.00;;;;;;5052776;28;20945;-77
2023/10/08 12:36:42;;;;;;;2.30;1.50;;;14.10;1.00;;;;;;5035645;28;20452;-76
2023/10/08 12:39:17;;;;;;;2.03;1.00;;;14.30;1.00;;;;;;5053499;28;20418;-76
2023/10/08 12:41:46;;;;;;;2.27;1.53;;;14.40;1.00;;;;;;5053495;28;20185;-78
2023/10/08 12:44:15;;;;;;;3.83;1.40;;;14.40;1.00;;;;;;5051507;28;20488;-77
2023/10/08 12:46:43;;;;;;;2.17;1.10;;;14.50;1.00;;;;;;5051970;28;20426;-78
2023/10/08 12:49:09;;;;;;;2.90;1.10;;;14.70;1.00;;;;;;5052436;28;20413;-78
2023/10/08 12:51:41;;;;;;;4.13;1.47;;;14.50;1.00;;;;;;5050172;28;20516;-76
2023/10/08 12:54:07;;;;;;;1.87;1.30;;;14.30;1.00;;;;;;5054086;28;20968;-76
2023/10/08 12:56:44;;;;;;;6.50;1.20;;;14.10;1.00;;;;;;5053287;28;20453;-76
2023/10/08 12:59:20;;;;;;;1.40;1.13;;;13.80;1.00;;;;;;5053272;28;20405;-77
2023/10/08 13:01:50;;;;;;;1.83;1.30;;;13.70;1.00;;;;;;5053075;28;20405;-77
2023/10/08 13:04:28;;;;;;;1.40;1.17;;;13.60;1.00;;;;;;5050843;28;20425;-76
2023/10/08 13:07:01;;;;;;;6.43;4.73;;;13.80;1.00;;;;;;5053203;28;20409;-76
2023/10/08 13:09:27;;;;;;;1.47;1.37;;;13.60;1.00;;;;;;5053110;28;20401;-76
2023/10/08 13:11:53;;;;;;;1.93;1.43;;;13.60;1.00;;;;;;5052973;28;20402;-75
2023/10/08 13:14:19;;;;;;;1.90;1.27;;;13.50;1.00;;;;;;5052167;28;20203;-76
2023/10/08 13:16:45;;;;;;;2.00;1.20;;;13.70;1.00;;;;;;5051699;28;20541;-76
2023/10/08 13:19:11;;;;;;;3.37;1.50;;;13.70;1.00;;;;;;5052966;28;20400;-76
2023/10/08 13:21:37;;;;;;;4.50;1.33;;;13.60;1.00;;;;;;5052863;28;20408;-75
2023/10/08 13:24:05;;;;;;;1.93;1.50;;;13.60;1.00;;;;;;5051491;28;20496;-76
2023/10/08 13:26:31;;;;;;;3.00;1.20;;;13.40;1.00;;;;;;5052791;28;20475;-76
2023/10/08 13:29:00;;;;;;;2.80;1.50;;;13.30;1.00;;;;;;5035385;28;20809;-76
2023/10/08 13:31:27;;;;;;;6.47;1.40;;;13.30;1.00;;;;;;5035493;28;20643;-76
2023/10/08 13:33:56;;;;;;;2.53;1.60;;;13.30;1.00;;;;;;5033734;28;20485;-76
2023/10/08 13:36:23;;;;;;;1.90;1.67;;;13.30;1.00;;;;;;5053529;28;20480;-76
2023/10/08 13:38:50;;;;;;;3.83;1.47;;;13.30;1.00;;;;;;5054118;28;20412;-77
2023/10/08 13:41:16;;;;;;;1.60;1.40;;;13.20;1.00;;;;;;5053480;28;20531;-78
2023/10/08 13:43:47;;;;;;;1.63;1.53;;;13.30;1.00;;;;;;5053571;28;20437;-77
2023/10/08 13:46:22;;;;;;;4.30;1.40;;;13.40;1.00;;;;;;5053697;28;20456;-79
2023/10/08 13:48:49;;;;;;;2.13;1.63;;;13.50;1.00;;;;;;5036821;28;20401;-75
2023/10/08 13:51:20;;;;;;;3.20;1.20;;;13.60;1.00;;;;;;5036860;28;20399;-77
2023/10/08 13:53:59;;;;;;;3.83;1.30;;;13.80;1.00;;;;;;5035804;28;20454;-77
2023/10/08 13:56:32;;;;;;;2.90;1.60;;;13.70;1.00;;;;;;5036575;28;20500;-78
2023/10/08 13:59:14;;;;;;;1.40;1.10;;;13.80;1.00;;;;;;5050181;28;20457;-77
2023/10/08 14:01:51;;;;;;;2.10;1.50;;;13.80;1.00;;;;;;5038043;28;20539;-79
2023/10/08 14:04:19;;;;;;;2.07;1.87;;;13.80;1.00;;;;;;5055550;28;20409;-76
2023/10/08 14:06:57;;;;;;;3.00;1.50;;;13.90;1.00;;;;;;5056281;28;20421;-77
2023/10/08 14:09:36;;;;;;;1.30;1.20;;;14.00;1.00;;;;;;5056336;28;20412;-74
2023/10/08 14:12:07;;;;;;;1.77;1.43;;;13.80;1.00;;;;;;5055386;28;20437;-77
2023/10/08 14:14:34;;;;;;;3.00;1.30;;;13.50;1.00;;;;;;5055268;28;20506;-76
2023/10/08 14:17:05;;;;;;;1.93;1.40;;;13.30;1.00;;;;;;5054911;28;20437;-77